Weather at Kuini Lavenia Airport

Public forecast

Using degrees Celsius for public forecast. Weather courtesy of forecast.io.

Closest aviation weather report (METAR) to Kuini Lavenia Airport

Closest report is Pago Pago International Airport, 204.1 nm (378.0 km) ENE.

2024/04/22 11:50 (retrieved 1 hour ago)

NSTU 221150Z VRB06KT 10SM SCT018 BKN040 28/25 A2987 RMK SLP115 60003 70180 8/800 T02810251 10290 20280 56008

Closest aviation forecast (TAF) to Kuini Lavenia Airport

Closest forecast is Pago Pago International Airport, 204.1 nm (378.0 km) ENE.

2024/04/22 12:28 (retrieved 37 minutes ago)

TAF NSTU 221122Z 2212/2312 12010KT P6SM VCSH FEW015 BKN040